Time;durP1;ratioP1;P1;durP2;ratioP2;P2;SDS_P1;SDS_P2;PMS_P1;PMS_P2;Temp;Humidity;BMP_temperature;BMP_pressure;BME280_temperature;BME280_humidity;BME280_pressure;Samples;Min_cycle;Max_cycle;Signal;HPM_P1;HPM_P2
2021/10/10 00:01:44;;;;;;;50.38;22.65;;;14.30;92.50;;;;;;4916405;29;20486;-82
2021/10/10 00:04:11;;;;;;;47.90;23.13;;;14.30;92.50;;;;;;4916326;29;20044;-83
2021/10/10 00:06:39;;;;;;;49.88;24.35;;;14.30;92.60;;;;;;4916501;29;20063;-83
2021/10/10 00:09:07;;;;;;;47.55;24.40;;;14.30;92.60;;;;;;4916582;29;20446;-83
2021/10/10 00:11:34;;;;;;;62.78;28.30;;;14.30;92.60;;;;;;4899348;29;20537;-84
2021/10/10 00:14:02;;;;;;;69.47;32.08;;;14.30;92.60;;;;;;4897087;29;20055;-83
2021/10/10 00:16:29;;;;;;;81.35;33.63;;;14.30;92.70;;;;;;4896522;29;20040;-84
2021/10/10 00:18:57;;;;;;;38.63;22.45;;;14.30;92.70;;;;;;4897632;29;20049;-83
2021/10/10 00:21:25;;;;;;;30.58;17.48;;;14.30;92.70;;;;;;4897675;29;20055;-83
2021/10/10 00:23:52;;;;;;;29.42;18.67;;;14.30;92.70;;;;;;4880953;29;20044;-83
2021/10/10 00:26:20;;;;;;;24.70;16.67;;;14.30;92.70;;;;;;4900891;29;20057;-84
2021/10/10 00:28:47;;;;;;;28.48;15.95;;;14.30;92.60;;;;;;4884037;29;20048;-84
2021/10/10 00:31:15;;;;;;;29.83;16.67;;;14.30;92.50;;;;;;4898878;29;20045;-83
2021/10/10 00:33:43;;;;;;;29.02;16.60;;;14.20;92.40;;;;;;4897279;29;20048;-83
2021/10/10 00:36:10;;;;;;;28.55;16.92;;;14.20;92.40;;;;;;4880303;29;20056;-83
2021/10/10 00:38:38;;;;;;;32.47;20.02;;;14.20;92.40;;;;;;4896563;29;20507;-83
2021/10/10 00:41:06;;;;;;;35.25;22.13;;;14.10;92.40;;;;;;4897167;29;20056;-83
2021/10/10 00:43:34;;;;;;;37.00;22.88;;;14.10;92.40;;;;;;4896267;29;20049;-83
2021/10/10 00:46:01;;;;;;;39.58;24.55;;;14.10;92.50;;;;;;4896213;29;20045;-83
2021/10/10 00:48:29;;;;;;;35.17;24.70;;;14.10;92.50;;;;;;4897093;29;20392;-83
2021/10/10 00:50:57;;;;;;;44.80;25.70;;;14.00;92.50;;;;;;4897119;29;20496;-83
2021/10/10 00:53:25;;;;;;;39.67;25.95;;;14.00;92.60;;;;;;4895708;29;20053;-83
2021/10/10 00:55:54;;;;;;;41.70;26.98;;;14.00;92.60;;;;;;4879904;29;20063;-84
2021/10/10 00:58:23;;;;;;;42.85;28.65;;;14.00;92.60;;;;;;4897179;29;20071;-82
2021/10/10 01:00:52;;;;;;;45.53;29.08;;;14.10;92.70;;;;;;4895694;29;20044;-83
2021/10/10 01:03:21;;;;;;;48.70;30.23;;;14.10;92.70;;;;;;4880348;29;20048;-83
2021/10/10 01:05:49;;;;;;;50.90;30.70;;;14.00;92.70;;;;;;4897302;29;20052;-82
2021/10/10 01:08:18;;;;;;;60.78;32.22;;;14.00;92.70;;;;;;4896549;29;20064;-84
2021/10/10 01:10:48;;;;;;;61.53;32.63;;;14.00;92.70;;;;;;4896773;29;20049;-83
2021/10/10 01:13:16;;;;;;;60.90;32.35;;;14.00;92.70;;;;;;4865297;29;20052;-83
2021/10/10 01:15:44;;;;;;;55.95;32.40;;;14.00;92.80;;;;;;4897241;29;20053;-84
2021/10/10 01:18:18;;;;;;;65.05;33.17;;;14.00;92.80;;;;;;4884150;29;20049;-84
2021/10/10 01:20:47;;;;;;;66.88;34.88;;;14.00;92.90;;;;;;4901129;29;20056;-84
2021/10/10 01:23:15;;;;;;;68.97;34.67;;;14.10;92.90;;;;;;4899770;29;20048;-83
2021/10/10 01:25:43;;;;;;;70.43;37.05;;;14.00;92.90;;;;;;4899465;29;20132;-84
2021/10/10 01:28:10;;;;;;;70.00;36.78;;;14.00;92.90;;;;;;4900434;29;20052;-83
2021/10/10 01:30:38;;;;;;;73.70;37.13;;;14.00;92.90;;;;;;4900660;29;20075;-84
2021/10/10 01:33:08;;;;;;;76.78;38.55;;;14.00;93.00;;;;;;4900564;29;20049;-83
2021/10/10 01:35:37;;;;;;;75.30;38.78;;;14.00;93.00;;;;;;4900516;29;20045;-83
2021/10/10 01:38:06;;;;;;;78.22;39.15;;;14.00;93.00;;;;;;4900320;29;20067;-83
2021/10/10 01:40:34;;;;;;;83.38;40.28;;;14.00;93.00;;;;;;4900366;29;20044;-83
2021/10/10 01:43:06;;;;;;;85.43;40.22;;;14.00;93.10;;;;;;4900298;29;20044;-84
2021/10/10 01:45:34;;;;;;;76.85;40.75;;;14.00;93.10;;;;;;4884591;29;20052;-84
2021/10/10 01:48:01;;;;;;;77.53;41.33;;;14.00;93.10;;;;;;4900264;29;20052;-83
2021/10/10 01:50:29;;;;;;;73.65;39.60;;;14.00;93.20;;;;;;4900129;29;20052;-83
2021/10/10 01:52:57;;;;;;;81.20;40.53;;;14.10;93.20;;;;;;4883476;29;20059;-83
2021/10/10 01:55:24;;;;;;;78.80;40.13;;;14.00;93.20;;;;;;4899923;29;20049;-83
2021/10/10 01:57:52;;;;;;;86.40;42.80;;;14.00;93.20;;;;;;4883447;29;20049;-84
2021/10/10 02:00:19;;;;;;;77.47;39.50;;;14.10;93.20;;;;;;4900027;29;20049;-83
2021/10/10 02:02:47;;;;;;;78.22;40.03;;;14.10;93.20;;;;;;4899554;29;20056;-84
2021/10/10 02:05:15;;;;;;;84.30;41.08;;;14.10;93.20;;;;;;4899847;29;20052;-84
2021/10/10 02:07:42;;;;;;;82.45;39.47;;;14.10;93.20;;;;;;4899630;29;20055;-84
2021/10/10 02:10:11;;;;;;;76.00;39.20;;;14.10;93.20;;;;;;4882957;29;20060;-84
2021/10/10 02:12:39;;;;;;;78.28;41.00;;;14.10;93.20;;;;;;4899628;29;20435;-84
2021/10/10 02:15:08;;;;;;;73.07;38.17;;;14.10;93.20;;;;;;4898365;29;20049;-83
2021/10/10 02:17:35;;;;;;;66.47;36.58;;;14.10;93.30;;;;;;4899761;29;20048;-84
2021/10/10 02:20:05;;;;;;;59.95;35.53;;;14.00;93.30;;;;;;4899530;29;20049;-84
2021/10/10 02:22:32;;;;;;;64.30;34.97;;;14.10;93.30;;;;;;4898790;29;20048;-84
2021/10/10 02:25:00;;;;;;;49.50;30.98;;;14.10;93.30;;;;;;4889253;29;20059;-83
2021/10/10 02:27:28;;;;;;;38.90;27.63;;;14.10;93.30;;;;;;4888459;29;20069;-85
2021/10/10 02:29:55;;;;;;;30.88;20.60;;;14.10;93.30;;;;;;4900270;29;20052;-84
2021/10/10 02:32:23;;;;;;;27.52;19.13;;;14.10;93.20;;;;;;4899516;29;20068;-84
2021/10/10 02:34:50;;;;;;;25.17;19.10;;;14.10;93.10;;;;;;4898021;29;20060;-84
2021/10/10 02:37:18;;;;;;;27.23;17.20;;;14.10;93.00;;;;;;4898427;29;20084;-84
2021/10/10 02:39:46;;;;;;;22.63;15.95;;;14.10;92.90;;;;;;4899373;29;20055;-84
2021/10/10 02:42:13;;;;;;;22.05;15.30;;;14.10;92.70;;;;;;4899149;29;20048;-83
2021/10/10 02:44:41;;;;;;;22.38;14.05;;;14.00;92.70;;;;;;4898905;29;20072;-83
2021/10/10 02:47:08;;;;;;;17.70;13.50;;;14.00;92.70;;;;;;4882293;29;20515;-84
2021/10/10 02:49:36;;;;;;;15.88;12.68;;;14.00;92.60;;;;;;4897747;29;20056;-84
2021/10/10 02:52:04;;;;;;;14.18;10.00;;;14.00;92.50;;;;;;4898892;29;20057;-84
2021/10/10 02:54:31;;;;;;;21.77;11.95;;;14.00;92.40;;;;;;4898855;29;20052;-84
2021/10/10 02:56:59;;;;;;;14.20;10.60;;;14.00;92.30;;;;;;4881891;29;20052;-84
2021/10/10 02:59:26;;;;;;;18.05;11.57;;;13.90;92.30;;;;;;4897586;29;20048;-84
2021/10/10 03:01:54;;;;;;;21.15;10.95;;;13.90;92.30;;;;;;4898857;29;20063;-84
2021/10/10 03:04:21;;;;;;;15.20;10.50;;;13.80;92.30;;;;;;4898566;29;20056;-84
2021/10/10 03:06:49;;;;;;;14.88;9.45;;;13.80;92.40;;;;;;4898601;29;20048;-84
2021/10/10 03:09:16;;;;;;;12.70;9.15;;;13.70;92.50;;;;;;4898719;29;20209;-84
2021/10/10 03:11:44;;;;;;;11.85;8.02;;;13.60;92.60;;;;;;4898598;29;20056;-84
2021/10/10 03:14:11;;;;;;;15.40;7.75;;;13.60;92.60;;;;;;4898519;29;20053;-84
2021/10/10 03:16:39;;;;;;;11.20;8.18;;;13.60;92.60;;;;;;4898195;29;20068;-85
2021/10/10 03:19:07;;;;;;;14.68;8.13;;;13.60;92.60;;;;;;4881724;29;20067;-84
2021/10/10 03:21:34;;;;;;;16.77;8.13;;;13.50;92.60;;;;;;4865753;29;20049;-84
2021/10/10 03:24:02;;;;;;;13.95;7.38;;;13.50;92.60;;;;;;4898383;29;20052;-84
2021/10/10 03:26:29;;;;;;;8.90;6.40;;;13.60;92.60;;;;;;4881478;29;20056;-84
2021/10/10 03:28:57;;;;;;;9.68;6.93;;;13.50;92.60;;;;;;4898494;29;20072;-84
2021/10/10 03:31:25;;;;;;;12.25;5.88;;;13.50;92.50;;;;;;4898218;29;20055;-84
2021/10/10 03:33:52;;;;;;;11.48;4.93;;;13.50;92.30;;;;;;4896681;29;20060;-84
2021/10/10 03:36:20;;;;;;;6.05;3.70;;;13.50;92.10;;;;;;4881126;29;20049;-84
2021/10/10 03:38:47;;;;;;;9.18;5.40;;;13.40;91.90;;;;;;4883260;29;20060;-83
2021/10/10 03:41:15;;;;;;;12.15;4.85;;;13.40;91.80;;;;;;4900188;29;20052;-84
2021/10/10 03:43:43;;;;;;;8.15;4.70;;;13.40;91.80;;;;;;4917172;29;20056;-83
2021/10/10 03:46:10;;;;;;;13.50;4.60;;;13.40;91.70;;;;;;4916710;29;20208;-84
2021/10/10 03:48:38;;;;;;;8.90;3.30;;;13.30;91.70;;;;;;4900373;29;20051;-84
2021/10/10 03:51:06;;;;;;;11.68;4.07;;;13.30;91.40;;;;;;4900004;29;20048;-85
2021/10/10 03:56:10;;;;;;;9.13;3.20;;;13.20;91.40;;;;;;4908822;29;20114;-83
2021/10/10 03:58:39;;;;;;;8.77;2.53;;;13.20;91.30;;;;;;4897650;29;20060;-84
2021/10/10 04:01:06;;;;;;;6.97;2.33;;;13.10;91.10;;;;;;4897906;29;20529;-84
2021/10/10 04:03:34;;;;;;;7.72;2.40;;;13.00;91.10;;;;;;4897930;29;20048;-84
2021/10/10 04:06:03;;;;;;;12.20;2.50;;;13.00;91.00;;;;;;4897896;29;20053;-84
2021/10/10 04:08:30;;;;;;;9.55;2.20;;;12.90;91.00;;;;;;4897674;29;20528;-84
2021/10/10 04:10:58;;;;;;;6.95;2.63;;;12.80;90.90;;;;;;4880712;29;20483;-84
2021/10/10 04:13:26;;;;;;;7.10;2.42;;;12.80;90.90;;;;;;4897429;29;20053;-83
2021/10/10 04:15:53;;;;;;;12.75;2.65;;;12.70;91.10;;;;;;4897457;29;20048;-84
2021/10/10 04:18:21;;;;;;;8.13;2.30;;;12.70;91.20;;;;;;4897425;29;20056;-84
2021/10/10 04:20:48;;;;;;;9.02;1.95;;;12.70;91.20;;;;;;4881270;29;20075;-84
2021/10/10 04:23:16;;;;;;;9.77;1.90;;;12.70;91.10;;;;;;4905049;29;20060;-85
2021/10/10 04:25:43;;;;;;;5.60;1.90;;;12.60;91.10;;;;;;4902050;29;20061;-85
2021/10/10 04:28:11;;;;;;;6.68;1.90;;;12.60;91.00;;;;;;4897879;29;20064;-85
2021/10/10 04:30:38;;;;;;;11.07;2.25;;;12.60;90.90;;;;;;4897556;29;20064;-84
2021/10/10 04:33:08;;;;;;;9.70;2.33;;;12.60;90.90;;;;;;4896834;29;20056;-85
2021/10/10 04:35:36;;;;;;;9.30;2.35;;;12.50;90.80;;;;;;4880381;29;20056;-82
2021/10/10 04:38:03;;;;;;;8.57;2.40;;;12.50;90.90;;;;;;4880288;29;20052;-82
2021/10/10 04:40:31;;;;;;;12.07;2.60;;;12.50;90.90;;;;;;4897733;29;20068;-84
2021/10/10 04:42:58;;;;;;;8.52;2.83;;;12.50;91.00;;;;;;4898749;29;20052;-83
2021/10/10 04:45:26;;;;;;;13.75;2.95;;;12.50;91.10;;;;;;4900102;29;20053;-81
2021/10/10 04:47:54;;;;;;;11.70;3.33;;;12.50;91.10;;;;;;4882984;29;20045;-82
2021/10/10 04:50:21;;;;;;;16.73;3.60;;;12.50;91.10;;;;;;4880973;29;20104;-83
2021/10/10 04:52:49;;;;;;;14.18;3.80;;;12.50;91.20;;;;;;4896504;29;20049;-82
2021/10/10 04:55:17;;;;;;;12.00;4.38;;;12.40;91.30;;;;;;4880501;29;20519;-82
2021/10/10 04:57:44;;;;;;;15.57;4.38;;;12.50;91.40;;;;;;4896618;29;20499;-82
2021/10/10 05:00:12;;;;;;;11.73;3.80;;;12.50;91.30;;;;;;4880053;29;20063;-82
2021/10/10 05:02:40;;;;;;;11.93;4.05;;;12.40;91.30;;;;;;4897301;29;20048;-83
2021/10/10 05:05:08;;;;;;;16.00;3.70;;;12.40;91.40;;;;;;4896724;29;20051;-83
2021/10/10 05:07:36;;;;;;;13.50;3.20;;;12.40;91.40;;;;;;4880127;29;20071;-83
2021/10/10 05:10:04;;;;;;;13.43;2.33;;;12.40;91.30;;;;;;4879775;29;20522;-83
2021/10/10 05:12:32;;;;;;;16.30;3.45;;;12.40;91.20;;;;;;4896735;29;20490;-83
2021/10/10 05:14:59;;;;;;;10.40;3.40;;;12.40;91.10;;;;;;4896800;29;20388;-83
2021/10/10 05:17:27;;;;;;;15.27;3.50;;;12.40;91.10;;;;;;4896554;29;20388;-84
2021/10/10 05:19:54;;;;;;;11.63;2.83;;;12.30;91.20;;;;;;4896500;29;20414;-83
2021/10/10 05:22:22;;;;;;;10.95;3.03;;;12.30;91.30;;;;;;4896830;29;20055;-83
2021/10/10 05:24:50;;;;;;;12.10;3.40;;;12.30;91.40;;;;;;4896553;29;20053;-83
2021/10/10 05:27:18;;;;;;;9.48;2.88;;;12.30;91.40;;;;;;4896860;29;20059;-83
2021/10/10 05:29:45;;;;;;;14.00;3.90;;;12.30;91.50;;;;;;4880311;29;20402;-84
2021/10/10 05:32:13;;;;;;;9.30;3.47;;;12.30;91.50;;;;;;4896721;29;20426;-82
2021/10/10 05:34:41;;;;;;;12.55;3.55;;;12.30;91.60;;;;;;4896688;29;20059;-84
2021/10/10 05:37:08;;;;;;;14.93;3.58;;;12.30;91.60;;;;;;4896843;29;20059;-84
2021/10/10 05:39:36;;;;;;;12.50;4.03;;;12.30;91.50;;;;;;4896902;29;20061;-84
2021/10/10 05:42:04;;;;;;;15.77;4.25;;;12.30;91.50;;;;;;4864650;29;20060;-84
2021/10/10 05:44:32;;;;;;;12.13;4.47;;;12.30;91.60;;;;;;4896716;29;20526;-84
2021/10/10 05:47:00;;;;;;;11.85;4.70;;;12.30;91.60;;;;;;4895705;29;20056;-84
2021/10/10 05:49:27;;;;;;;11.60;4.28;;;12.30;91.60;;;;;;4879721;29;20052;-83
2021/10/10 05:51:58;;;;;;;13.25;4.57;;;12.30;91.60;;;;;;4896757;29;20053;-83
2021/10/10 05:54:31;;;;;;;14.07;5.28;;;12.30;91.70;;;;;;4896450;29;20056;-83
2021/10/10 05:57:02;;;;;;;;;;;12.30;91.80;;;;;;4895927;29;20053;-82
2021/10/10 05:59:33;;;;;;;21.67;6.72;;;12.30;91.80;;;;;;4879424;29;19940;-83
2021/10/10 06:02:02;;;;;;;19.35;6.88;;;12.30;91.80;;;;;;4895559;29;20049;-82
2021/10/10 06:04:30;;;;;;;21.23;7.22;;;12.30;91.80;;;;;;4880235;29;20044;-83
2021/10/10 06:06:58;;;;;;;25.85;8.15;;;12.30;91.90;;;;;;4900167;29;20150;-83
2021/10/10 06:09:25;;;;;;;22.00;7.85;;;12.30;91.90;;;;;;4900207;29;20423;-83
2021/10/10 06:11:54;;;;;;;17.88;8.10;;;12.30;92.00;;;;;;4899959;29;20048;-83
2021/10/10 06:14:21;;;;;;;17.70;8.57;;;12.30;92.00;;;;;;4900094;29;20056;-82
2021/10/10 06:16:49;;;;;;;19.52;7.97;;;12.30;92.00;;;;;;4883439;29;20044;-83
2021/10/10 06:19:16;;;;;;;17.73;7.80;;;12.30;92.10;;;;;;4885704;29;20052;-82
2021/10/10 06:21:44;;;;;;;19.63;7.72;;;12.30;92.10;;;;;;4912852;29;20049;-82
2021/10/10 06:24:12;;;;;;;17.73;7.25;;;12.30;92.10;;;;;;4902449;29;20060;-83
2021/10/10 06:26:39;;;;;;;11.52;5.90;;;12.30;92.00;;;;;;4899426;29;20061;-83
2021/10/10 06:29:07;;;;;;;15.50;8.02;;;12.30;92.00;;;;;;4899336;29;20052;-83
2021/10/10 06:31:34;;;;;;;18.50;8.43;;;12.20;91.90;;;;;;4899764;29;20048;-84
2021/10/10 06:34:03;;;;;;;18.52;8.75;;;12.30;91.90;;;;;;4882601;29;20048;-84
2021/10/10 06:36:30;;;;;;;17.42;8.77;;;12.30;91.90;;;;;;4899605;29;20060;-84
2021/10/10 06:38:58;;;;;;;19.42;7.22;;;12.20;91.90;;;;;;4882386;29;20064;-84
2021/10/10 06:41:26;;;;;;;17.85;6.93;;;12.20;91.90;;;;;;4899492;29;20056;-83
2021/10/10 06:43:54;;;;;;;19.27;7.40;;;12.20;91.90;;;;;;4898126;29;20064;-84
2021/10/10 06:46:21;;;;;;;16.77;7.18;;;12.20;91.90;;;;;;4912198;29;20495;-82
2021/10/10 06:48:49;;;;;;;15.75;6.22;;;12.20;91.90;;;;;;4900887;29;20040;-83
2021/10/10 06:51:16;;;;;;;14.68;6.13;;;12.20;91.90;;;;;;4918418;29;20059;-83
2021/10/10 06:53:44;;;;;;;15.63;5.90;;;12.20;91.80;;;;;;4901485;29;20048;-82
2021/10/10 06:56:12;;;;;;;9.77;5.70;;;12.20;91.80;;;;;;4917876;29;20067;-82
2021/10/10 06:58:39;;;;;;;12.85;5.10;;;12.20;91.80;;;;;;4917255;29;20063;-83
2021/10/10 07:01:11;;;;;;;13.68;5.13;;;12.20;91.80;;;;;;4917593;29;20059;-83
2021/10/10 07:03:40;;;;;;;10.20;4.25;;;12.20;91.70;;;;;;4917898;29;20499;-84
2021/10/10 07:06:08;;;;;;;11.07;4.85;;;12.20;91.70;;;;;;4917011;29;20056;-83
2021/10/10 07:08:36;;;;;;;16.33;4.40;;;12.20;91.70;;;;;;4885483;29;20051;-84
2021/10/10 07:11:03;;;;;;;10.63;4.55;;;12.20;91.70;;;;;;4900675;29;20056;-83
2021/10/10 07:13:31;;;;;;;14.82;4.60;;;12.20;91.60;;;;;;4900880;29;20293;-81
2021/10/10 07:15:58;;;;;;;13.25;4.53;;;12.20;91.60;;;;;;4916922;29;20055;-83
2021/10/10 07:18:31;;;;;;;12.50;4.60;;;12.20;91.60;;;;;;4900727;29;20044;-84
2021/10/10 07:26:24;;;;;;;12.00;5.00;;;12.20;91.60;;;;;;4918229;29;20044;-82
2021/10/10 07:28:51;;;;;;;15.65;4.28;;;12.30;91.60;;;;;;4919087;29;20046;-83
2021/10/10 07:31:19;;;;;;;13.13;4.10;;;12.20;91.60;;;;;;4903381;29;20516;-83
2021/10/10 07:33:47;;;;;;;11.73;3.85;;;12.30;91.60;;;;;;4919084;29;20075;-82
2021/10/10 07:36:15;;;;;;;9.68;3.70;;;12.30;91.60;;;;;;4917610;29;20064;-83
2021/10/10 07:38:42;;;;;;;12.55;3.80;;;12.30;91.50;;;;;;4900820;29;20055;-83
2021/10/10 07:41:10;;;;;;;11.75;3.92;;;12.30;91.50;;;;;;4915853;29;20079;-83
2021/10/10 07:43:39;;;;;;;9.93;3.90;;;12.30;91.40;;;;;;4917291;29;20395;-82
2021/10/10 07:46:17;;;;;;;11.73;3.97;;;12.30;91.40;;;;;;4900513;29;20059;-84
2021/10/10 07:48:46;;;;;;;17.38;3.35;;;12.30;91.40;;;;;;4917298;29;20052;-84
2021/10/10 07:51:16;;;;;;;8.93;2.83;;;12.30;91.30;;;;;;4916801;29;20052;-84
2021/10/10 07:53:44;;;;;;;12.05;2.88;;;12.30;91.30;;;;;;4917168;29;20048;-83
2021/10/10 07:56:12;;;;;;;10.95;2.80;;;12.40;91.20;;;;;;4916564;29;20059;-84
2021/10/10 07:58:40;;;;;;;9.88;2.47;;;12.40;91.20;;;;;;4899668;29;20052;-84
2021/10/10 08:01:07;;;;;;;10.05;2.30;;;12.50;91.10;;;;;;4899781;29;20040;-91
2021/10/10 08:03:35;;;;;;;8.98;2.85;;;12.50;91.10;;;;;;4900390;29;20048;-83
2021/10/10 08:06:09;;;;;;;17.65;3.03;;;12.60;91.00;;;;;;4917316;29;20055;-84
2021/10/10 08:08:36;;;;;;;16.20;2.58;;;12.70;90.70;;;;;;4916920;29;20048;-84
2021/10/10 08:11:04;;;;;;;10.43;2.55;;;12.70;90.60;;;;;;4901122;29;20055;-83
2021/10/10 08:13:32;;;;;;;14.40;2.42;;;12.70;90.60;;;;;;4906257;29;20052;-91
2021/10/10 08:15:59;;;;;;;9.70;2.47;;;12.70;90.50;;;;;;4922784;29;20052;-89
2021/10/10 08:18:27;;;;;;;16.17;3.17;;;12.70;90.50;;;;;;4923171;29;20063;-83
2021/10/10 08:20:55;;;;;;;12.30;2.40;;;12.80;90.50;;;;;;4919275;29;20277;-83
2021/10/10 08:23:23;;;;;;;9.45;1.95;;;12.80;90.20;;;;;;4899498;29;20048;-82
2021/10/10 08:25:50;;;;;;;11.75;2.10;;;12.80;90.00;;;;;;4914071;29;20430;-82
2021/10/10 08:28:18;;;;;;;8.98;1.95;;;12.80;89.60;;;;;;4883430;29;20525;-83
2021/10/10 08:30:45;;;;;;;15.10;2.00;;;12.80;89.40;;;;;;4901375;29;20052;-83
2021/10/10 08:33:13;;;;;;;8.70;1.77;;;12.90;89.40;;;;;;4915826;29;20550;-83
2021/10/10 08:35:41;;;;;;;8.98;2.03;;;12.80;89.20;;;;;;4915918;29;20509;-83
2021/10/10 08:38:08;;;;;;;11.80;1.90;;;12.80;88.80;;;;;;4914809;29;20427;-83
2021/10/10 08:40:37;;;;;;;10.00;2.10;;;12.70;88.70;;;;;;4889328;29;20096;-83
2021/10/10 08:43:07;;;;;;;8.27;2.35;;;12.70;88.90;;;;;;4875639;29;20435;-84
2021/10/10 08:45:35;;;;;;;12.70;2.63;;;12.70;88.90;;;;;;4905780;29;20048;-83
2021/10/10 08:48:02;;;;;;;9.25;1.95;;;12.60;89.00;;;;;;4905008;29;20052;-83
2021/10/10 08:50:31;;;;;;;6.72;2.10;;;12.60;89.10;;;;;;4894004;29;20051;-84
2021/10/10 08:53:00;;;;;;;14.40;3.13;;;12.50;89.10;;;;;;4910016;29;20737;-84
2021/10/10 08:55:31;;;;;;;12.70;2.33;;;12.50;89.10;;;;;;4915530;29;20044;-83
2021/10/10 08:58:00;;;;;;;8.07;2.58;;;12.50;89.20;;;;;;4915815;29;20044;-83
2021/10/10 09:03:00;;;;;;;9.13;2.20;;;12.60;89.20;;;;;;4898952;29;20122;-83
2021/10/10 09:05:49;;;;;;;12.57;2.90;;;12.80;89.00;;;;;;4901766;29;20048;-83
2021/10/10 09:08:17;;;;;;;8.85;2.40;;;12.90;88.70;;;;;;4898862;29;20484;-83
2021/10/10 09:10:44;;;;;;;12.18;2.03;;;12.90;88.40;;;;;;4899015;29;20502;-82
2021/10/10 09:13:16;;;;;;;10.95;1.98;;;13.00;88.20;;;;;;4915473;29;20056;-82
2021/10/10 09:15:48;;;;;;;7.53;2.65;;;13.00;88.20;;;;;;4915784;29;20048;-83
2021/10/10 09:18:16;;;;;;;7.80;2.15;;;13.10;88.00;;;;;;4899548;29;20055;-82
2021/10/10 09:20:46;;;;;;;9.32;2.45;;;13.10;87.30;;;;;;4915454;29;20631;-82
2021/10/10 09:23:16;;;;;;;11.75;2.10;;;13.10;87.40;;;;;;4915194;29;20490;-83
2021/10/10 09:26:03;;;;;;;7.43;1.88;;;13.10;87.50;;;;;;4898531;29;20510;-83
2021/10/10 09:28:33;;;;;;;10.60;1.98;;;13.10;87.40;;;;;;4915505;29;20048;-83
2021/10/10 09:31:03;;;;;;;12.55;1.90;;;13.10;87.30;;;;;;4899019;29;20052;-82
2021/10/10 09:33:36;;;;;;;10.55;1.92;;;13.20;87.20;;;;;;4915301;29;20064;-83
2021/10/10 09:36:09;;;;;;;8.88;1.58;;;13.30;86.70;;;;;;4882984;29;20410;-82
2021/10/10 09:38:45;;;;;;;9.85;1.60;;;13.30;86.50;;;;;;4918618;29;20051;-82
2021/10/10 09:43:57;;;;;;;13.65;2.08;;;13.50;85.60;;;;;;4919356;29;20509;-82
2021/10/10 09:46:27;;;;;;;9.65;2.08;;;13.80;85.20;;;;;;4919070;29;20405;-83
2021/10/10 09:48:56;;;;;;;12.38;1.90;;;14.00;84.40;;;;;;4918787;29;20048;-83
2021/10/10 09:51:35;;;;;;;10.85;1.92;;;14.20;83.70;;;;;;4918945;29;20043;-83
2021/10/10 09:54:05;;;;;;;10.77;1.63;;;14.30;83.00;;;;;;4918064;29;20056;-83
2021/10/10 09:56:33;;;;;;;9.73;1.95;;;14.30;82.90;;;;;;4902115;29;20063;-83
2021/10/10 09:59:02;;;;;;;8.20;1.75;;;14.30;82.40;;;;;;4919209;29;20683;-83
2021/10/10 10:01:30;;;;;;;12.00;2.25;;;14.30;81.90;;;;;;4902742;29;20383;-83
2021/10/10 10:04:05;;;;;;;8.48;1.83;;;14.40;81.80;;;;;;4918945;29;20060;-83
2021/10/10 10:06:34;;;;;;;8.63;1.75;;;14.50;82.00;;;;;;4919324;29;20051;-83
2021/10/10 10:09:07;;;;;;;6.90;1.95;;;14.60;81.30;;;;;;4920259;29;20048;-82
2021/10/10 10:11:39;;;;;;;10.68;1.50;;;14.70;81.10;;;;;;4920384;29;20048;-82
2021/10/10 10:14:09;;;;;;;7.95;1.80;;;14.80;80.10;;;;;;4920021;29;20048;-81
2021/10/10 10:16:44;;;;;;;10.20;1.80;;;14.80;80.00;;;;;;4923901;29;20048;-82
2021/10/10 10:19:20;;;;;;;9.60;1.88;;;15.00;79.50;;;;;;4926227;29;20040;-83
2021/10/10 10:21:49;;;;;;;7.85;1.60;;;15.20;79.40;;;;;;4920678;29;20059;-82
2021/10/10 10:24:18;;;;;;;10.35;1.80;;;15.30;79.00;;;;;;4901998;29;20044;-81
2021/10/10 10:26:46;;;;;;;6.50;1.85;;;15.40;78.50;;;;;;4901609;29;20059;-83
2021/10/10 10:29:18;;;;;;;6.60;2.00;;;15.60;77.80;;;;;;4919004;29;20052;-83
2021/10/10 10:31:47;;;;;;;9.75;1.80;;;15.50;77.60;;;;;;4902248;29;20048;-81
2021/10/10 10:34:27;;;;;;;8.60;1.90;;;15.40;77.30;;;;;;4918322;29;20067;-82
2021/10/10 10:36:56;;;;;;;9.40;2.17;;;15.20;77.40;;;;;;4918527;29;20063;-82
2021/10/10 10:39:47;;;;;;;10.85;1.60;;;15.00;78.00;;;;;;4918587;29;20066;-81
2021/10/10 10:42:24;;;;;;;10.32;1.85;;;15.10;78.50;;;;;;4918242;29;20086;-82
2021/10/10 10:44:52;;;;;;;10.45;2.30;;;15.30;78.30;;;;;;4917919;29;20044;-82
2021/10/10 10:47:37;;;;;;;11.00;1.98;;;15.50;77.90;;;;;;4918457;29;20044;-82
2021/10/10 10:50:06;;;;;;;10.13;1.92;;;15.80;77.00;;;;;;4917748;29;20051;-82
2021/10/10 10:52:39;;;;;;;7.35;1.83;;;15.90;76.10;;;;;;4918628;29;20059;-82
2021/10/10 10:55:26;;;;;;;8.97;1.90;;;15.80;75.90;;;;;;4901276;29;20055;-82
2021/10/10 10:57:57;;;;;;;12.25;2.45;;;15.70;75.90;;;;;;4918524;29;20295;-82
2021/10/10 11:00:30;;;;;;;8.65;1.75;;;15.70;76.00;;;;;;4917769;29;20052;-82
2021/10/10 11:02:58;;;;;;;9.65;2.17;;;15.70;75.40;;;;;;4917073;29;20048;-81
2021/10/10 11:05:35;;;;;;;12.00;3.10;;;16.00;75.20;;;;;;4900439;29;20060;-82
2021/10/10 11:08:04;;;;;;;8.55;2.00;;;16.20;74.80;;;;;;4917493;29;20048;-81
2021/10/10 11:10:34;;;;;;;7.88;2.17;;;16.30;74.10;;;;;;4918007;29;20056;-81
2021/10/10 11:13:07;;;;;;;9.00;2.65;;;16.20;74.10;;;;;;4917901;29;20059;-81
2021/10/10 11:16:03;;;;;;;15.10;3.50;;;16.00;74.10;;;;;;4916681;29;20056;-82
2021/10/10 11:18:32;;;;;;;12.70;3.58;;;15.90;74.20;;;;;;4917578;29;20048;-83
2021/10/10 11:21:04;;;;;;;11.57;2.08;;;15.80;74.70;;;;;;4917672;29;20510;-83
2021/10/10 11:23:33;;;;;;;7.13;1.70;;;15.60;73.60;;;;;;4900093;29;20052;-83
2021/10/10 11:26:11;;;;;;;8.02;1.88;;;15.30;74.00;;;;;;4900923;29;20052;-83
2021/10/10 11:28:46;;;;;;;6.95;1.80;;;15.30;74.40;;;;;;4899616;29;20052;-83
2021/10/10 11:31:23;;;;;;;8.43;1.63;;;15.30;74.70;;;;;;4917474;29;20056;-83
2021/10/10 11:33:57;;;;;;;7.80;1.67;;;15.50;74.30;;;;;;4917387;29;20490;-82
2021/10/10 11:36:41;;;;;;;7.32;2.08;;;15.90;73.90;;;;;;4917459;29;20410;-83
2021/10/10 11:39:09;;;;;;;;;;;16.30;72.60;;;;;;4916762;29;20052;-82
2021/10/10 11:41:39;;;;;;;7.75;1.77;;;16.80;70.90;;;;;;4916207;29;20411;-82
2021/10/10 11:44:10;;;;;;;9.15;1.60;;;17.00;69.40;;;;;;4884771;29;20402;-82
2021/10/10 11:46:48;;;;;;;12.35;1.67;;;17.00;68.20;;;;;;4917361;29;20060;-83
2021/10/10 11:49:36;;;;;;;6.40;1.63;;;17.00;67.90;;;;;;4917611;29;20060;-83
2021/10/10 11:52:08;;;;;;;5.65;1.40;;;17.20;68.30;;;;;;4900644;29;20055;-83
2021/10/10 11:54:38;;;;;;;9.23;1.80;;;17.50;66.30;;;;;;4899649;29;20064;-82
2021/10/10 11:57:08;;;;;;;5.72;1.40;;;17.80;64.90;;;;;;4917094;29;20056;-82
2021/10/10 11:59:36;;;;;;;7.68;1.83;;;18.20;64.60;;;;;;4916802;29;20044;-83
2021/10/10 12:02:04;;;;;;;7.75;1.85;;;18.60;63.60;;;;;;4898979;29;20048;-83
2021/10/10 12:04:32;;;;;;;5.97;1.63;;;19.00;62.40;;;;;;4916857;29;20059;-83
2021/10/10 12:07:00;;;;;;;8.63;1.60;;;19.40;60.60;;;;;;4900251;29;20063;-83
2021/10/10 12:09:27;;;;;;;3.45;1.23;;;19.70;58.40;;;;;;4899669;29;20063;-83
2021/10/10 12:12:14;;;;;;;6.35;1.55;;;19.80;56.50;;;;;;4916894;29;20043;-83
2021/10/10 12:14:49;;;;;;;4.20;1.00;;;19.80;54.70;;;;;;4916642;29;20048;-84
2021/10/10 12:17:36;;;;;;;11.07;1.83;;;19.90;56.00;;;;;;4920356;29;20071;-87
2021/10/10 12:20:16;;;;;;;8.57;1.45;;;20.10;54.30;;;;;;4921973;29;20059;-84
2021/10/10 12:22:55;;;;;;;6.05;1.35;;;20.00;54.30;;;;;;4917152;29;20052;-83
2021/10/10 12:25:33;;;;;;;5.53;1.58;;;19.60;55.30;;;;;;4899381;29;20086;-83
2021/10/10 12:28:04;;;;;;;5.85;1.33;;;19.20;55.80;;;;;;4884025;29;20410;-83
2021/10/10 12:30:36;;;;;;;3.92;1.42;;;19.10;56.40;;;;;;4884742;29;20059;-83
2021/10/10 12:33:42;;;;;;;7.65;1.65;;;19.30;55.90;;;;;;4917127;29;20055;-82
2021/10/10 12:36:14;;;;;;;7.88;1.60;;;19.40;55.70;;;;;;4916223;29;20048;-83
2021/10/10 12:38:46;;;;;;;5.68;1.73;;;19.20;55.90;;;;;;4899383;29;20055;-83
2021/10/10 12:41:20;;;;;;;6.30;1.33;;;18.40;56.20;;;;;;4899605;29;20044;-83
2021/10/10 12:44:11;;;;;;;7.22;1.70;;;17.90;57.00;;;;;;4914482;29;20059;-83
2021/10/10 12:46:49;;;;;;;9.23;1.83;;;18.10;57.80;;;;;;4915816;29;20056;-84
2021/10/10 12:49:29;;;;;;;5.65;1.50;;;18.80;56.90;;;;;;4915975;29;20056;-83
2021/10/10 12:51:58;;;;;;;6.70;1.67;;;19.30;56.10;;;;;;4915433;29;20052;-83
2021/10/10 12:54:27;;;;;;;6.55;1.40;;;19.40;54.60;;;;;;4916149;29;20344;-83
2021/10/10 12:57:15;;;;;;;5.53;1.35;;;19.10;53.80;;;;;;4915677;29;20048;-83
2021/10/10 12:59:51;;;;;;;7.03;1.60;;;18.50;54.60;;;;;;4898518;29;20506;-83
2021/10/10 13:02:19;;;;;;;5.30;1.38;;;18.20;55.50;;;;;;4915765;29;20117;-83
2021/10/10 13:04:46;;;;;;;5.38;1.25;;;18.30;56.20;;;;;;4914838;29;20079;-83